Create Tblcommutelog Verified Points Advance Search
| # | Trip ID | Id Commuter | Trip Date | Trip Num | Current Lat | Current Lng | Delta Distance | Current Time | Activity | Activity Confidence | Current Speed | |
|---|---|---|---|---|---|---|---|---|---|---|---|---|
| 71241 | 260224_790203_16659191_1302 | 790203 | (not set) | (not set) | 39.131413304148 | -76.820495458134 | 15.7505 | 2026-02-24 13:40:46 | in_vehicle | 100 | 3.3438536572282 | |
| 71242 | 260224_790203_16659191_1302 | 790203 | (not set) | (not set) | 39.132272298442 | -76.821240915818 | 15.822 | 2026-02-24 13:40:54 | in_vehicle | 100 | 7.7248383953079 | |
| 71243 | 260224_790203_16659191_1302 | 790203 | (not set) | (not set) | 39.133655719084 | -76.823005700485 | 15.9566 | 2026-02-24 13:41:06 | in_vehicle | 100 | 8.6636208391821 | |
| 71244 | 260224_790203_16659191_1302 | 790203 | (not set) | (not set) | 39.13384248719 | -76.824578228102 | 16.0421 | 2026-02-24 13:41:13 | in_vehicle | 100 | 8.3328117875312 | |
| 71245 | 260224_790203_16659191_1302 | 790203 | (not set) | (not set) | 39.133810419266 | -76.826071697426 | 16.1223 | 2026-02-24 13:41:20 | in_vehicle | 100 | 8.4401012096882 | |
| 71246 | 260224_790203_16659191_1302 | 790203 | (not set) | (not set) | 39.133628036774 | -76.829135389691 | 16.2874 | 2026-02-24 13:41:34 | in_vehicle | 100 | 8.632328091053 | |
| 71247 | 260224_790203_16659191_1302 | 790203 | (not set) | (not set) | 39.133443603804 | -76.832201214329 | 16.4526 | 2026-02-24 13:41:48 | in_vehicle | 100 | 8.1316441209867 | |
| 71248 | 260224_790203_16659191_1302 | 790203 | (not set) | (not set) | 39.133431761296 | -76.835202240379 | 16.6138 | 2026-02-24 13:42:04 | in_vehicle | 100 | 5.753395263172 | |
| 71249 | 260224_790203_16659191_1302 | 790203 | (not set) | (not set) | 39.132961846198 | -76.837527260252 | 16.7429 | 2026-02-24 13:42:18 | in_vehicle | 100 | 7.6130785805609 | |
| 71250 | 260224_790203_16659191_1302 | 790203 | (not set) | (not set) | 39.133115650218 | -76.839904665841 | 16.8711 | 2026-02-24 13:42:32 | in_vehicle | 100 | 6.0484411741039 | |
| 71251 | 260224_790203_16659191_1302 | 790203 | (not set) | (not set) | 39.134525343152 | -76.841573444077 | 17.0033 | 2026-02-24 13:42:48 | in_vehicle | 100 | 6.2406680554686 | |
| 71252 | 260224_790203_16659191_1302 | 790203 | (not set) | (not set) | 39.13569424524 | -76.843334800083 | 17.1277 | 2026-02-24 13:43:01 | in_vehicle | 100 | 6.5223027886309 | |
| 71253 | 260224_790203_16659191_1302 | 790203 | (not set) | (not set) | 39.136687160591 | -76.845309673537 | 17.254 | 2026-02-24 13:43:14 | in_vehicle | 100 | 7.2956807066797 | |
| 71254 | 260224_790203_16659191_1302 | 790203 | (not set) | (not set) | 39.137565277147 | -76.847542285838 | 17.3883 | 2026-02-24 13:43:26 | in_vehicle | 100 | 8.4266900319186 | |
| 71255 | 260224_790203_16659191_1302 | 790203 | (not set) | (not set) | 39.138799806934 | -76.850031813651 | 17.5469 | 2026-02-24 13:43:40 | in_vehicle | 100 | 7.0811018623656 | |
| 71256 | 260224_790203_16659191_1302 | 790203 | (not set) | (not set) | 39.139510169778 | -76.852268171799 | 17.6766 | 2026-02-24 13:43:55 | in_vehicle | 100 | 5.7623360483518 | |
| 71257 | 260224_790203_16659191_1302 | 790203 | (not set) | (not set) | 39.140321895324 | -76.854483697173 | 17.8082 | 2026-02-24 13:44:16 | in_vehicle | 100 | 5.5969315225263 | |
| 71258 | 260224_768637_0_1443 | 768637 | (not set) | (not set) | 38.896809391705 | -76.990838315129 | 0 | 2026-02-24 14:43:45 | unknown | 100 | -0.44703925898772 | |
| 71259 | 260224_768637_0_1443 | 768637 | (not set) | (not set) | 38.896809368994 | -76.990838333479 | 0 | 2026-02-24 14:43:45 | unknown | 100 | -0.44703925898772 | |
| 71260 | 260224_768637_0_1443 | 768637 | (not set) | (not set) | 38.896809368994 | -76.990838333479 | 0 | 2026-02-24 14:43:45 | unknown | 100 | -0.44703925898772 |